Time;durP1;ratioP1;P1;durP2;ratioP2;P2;SDS_P1;SDS_P2;PMS_P1;PMS_P2;Temp;Humidity;BMP_temperature;BMP_pressure;BME280_temperature;BME280_humidity;BME280_pressure;Samples;Min_cycle;Max_cycle;Signal;HPM_P1;HPM_P2
2023/01/30 00:01:47;;;;;;;;;;;;;;;6.13;100;101731.5;;;;-74
2023/01/30 00:06:53;;;;;;;;;;;;;;;6.12;100;101720.2;;;;-75
2023/01/30 00:11:48;;;;;;;;;;;;;;;6.1;100;101703.9;;;;-75
2023/01/30 00:16:46;;;;;;;;;;;;;;;6.14;100;101704.9;;;;-75
2023/01/30 00:18:52;;;;;;;10.1;3;;;;;;;;;;;;;-75
2023/01/30 00:21:49;;;;;;;;;;;;;;;6.13;100;101690.7;;;;-76
2023/01/30 00:26:47;;;;;;;;;;;;;;;6.17;100;101673.5;;;;-75
2023/01/30 00:31:48;;;;;;;;;;;;;;;6.17;100;101671.1;;;;-75
2023/01/30 00:36:47;;;;;;;;;;;;;;;6.18;100;101665.5;;;;-74
2023/01/30 00:48:53;;;;;;;13.7;2.4;;;;;;;;;;;;;-74
2023/01/30 00:51:48;;;;;;;;;;;;;;;6.2;100;101624.9;;;;-75
2023/01/30 00:56:52;;;;;;;;;;;;;;;6.2;100;101619.4;;;;-74
2023/01/30 01:01:50;;;;;;;;;;;;;;;6.2;100;101629;;;;-74
2023/01/30 01:06:47;;;;;;;;;;;;;;;6.18;100;101619;;;;-75
2023/01/30 01:11:54;;;;;;;;;;;;;;;6.18;100;101625.6;;;;-74
2023/01/30 01:16:46;;;;;;;;;;;;;;;6.17;100;101613.2;;;;-75
2023/01/30 01:18:58;;;;;;;10.7;2.2;;;;;;;;;;;;;-74
2023/01/30 01:21:49;;;;;;;;;;;;;;;6.17;100;101608.9;;;;-72
2023/01/30 01:26:47;;;;;;;;;;;;;;;6.14;100;101601.7;;;;-73
2023/01/30 01:31:49;;;;;;;;;;;;;;;6.15;100;101598.6;;;;-74
2023/01/30 01:36:47;;;;;;;;;;;;;;;6.13;100;101601.4;;;;-73
2023/01/30 01:41:49;;;;;;;;;;;;;;;6.12;100;101596.6;;;;-73
2023/01/30 01:46:49;;;;;;;;;;;;;;;6.12;100;101584.3;;;;-74
2023/01/30 01:48:55;;;;;;;10.1;2.2;;;;;;;;;;;;;-74
2023/01/30 01:51:51;;;;;;;;;;;;;;;6.12;100;101583;;;;-73
2023/01/30 01:56:48;;;;;;;;;;;;;;;6.1;100;101585.9;;;;-74
2023/01/30 02:01:50;;;;;;;;;;;;;;;6.11;100;101583.7;;;;-73
2023/01/30 02:06:46;;;;;;;;;;;;;;;6.1;100;101580.7;;;;-73
2023/01/30 02:11:50;;;;;;;;;;;;;;;6.11;100;101575.2;;;;-73
2023/01/30 02:16:48;;;;;;;;;;;;;;;6.13;100;101580.8;;;;-73
2023/01/30 02:18:54;;;;;;;12.6;2.6;;;;;;;;;;;;;-73
2023/01/30 02:22:07;;;;;;;;;;;;;;;6.12;100;101577.1;;;;-74
2023/01/30 02:26:56;;;;;;;;;;;;;;;6.12;100;101570.7;;;;-73
2023/01/30 02:31:50;;;;;;;;;;;;;;;6.13;100;101574.5;;;;-73
2023/01/30 02:36:54;;;;;;;;;;;;;;;6.14;100;101577;;;;-74
2023/01/30 02:41:51;;;;;;;;;;;;;;;6.15;100;101584.6;;;;-74
2023/01/30 02:46:53;;;;;;;;;;;;;;;6.17;100;101581.6;;;;-73
2023/01/30 02:48:56;;;;;;;9.2;2.2;;;;;;;;;;;;;-73
2023/01/30 02:51:49;;;;;;;;;;;;;;;6.18;100;101573.8;;;;-73
2023/01/30 02:56:51;;;;;;;;;;;;;;;6.2;100;101575;;;;-73
2023/01/30 03:02:04;;;;;;;;;;;;;;;6.23;100;101565.7;;;;-73
2023/01/30 03:06:55;;;;;;;;;;;;;;;6.24;100;101565;;;;-75
2023/01/30 03:11:57;;;;;;;;;;;;;;;6.27;100;101556.8;;;;-74
2023/01/30 03:16:47;;;;;;;;;;;;;;;6.28;100;101560.4;;;;-73
2023/01/30 03:18:54;;;;;;;7.5;1.9;;;;;;;;;;;;;-74
2023/01/30 03:21:47;;;;;;;;;;;;;;;6.32;100;101562.4;;;;-74
2023/01/30 03:26:49;;;;;;;;;;;;;;;6.31;100;101556.8;;;;-74
2023/01/30 03:31:46;;;;;;;;;;;;;;;6.33;100;101557.8;;;;-73
2023/01/30 03:36:46;;;;;;;;;;;;;;;6.33;100;101564.5;;;;-74
2023/01/30 03:41:47;;;;;;;;;;;;;;;6.36;100;101545.5;;;;-74
2023/01/30 03:46:47;;;;;;;;;;;;;;;6.37;100;101548.8;;;;-74
2023/01/30 03:48:54;;;;;;;11.9;2.3;;;;;;;;;;;;;-73
2023/01/30 03:51:46;;;;;;;;;;;;;;;6.37;100;101558.2;;;;-75
2023/01/30 03:56:52;;;;;;;;;;;;;;;6.38;100;101560.1;;;;-74
2023/01/30 04:01:46;;;;;;;;;;;;;;;6.38;100;101551.6;;;;-74
2023/01/30 04:06:46;;;;;;;;;;;;;;;6.38;100;101558;;;;-73
2023/01/30 04:11:48;;;;;;;;;;;;;;;6.38;100;101551;;;;-73
2023/01/30 04:16:47;;;;;;;;;;;;;;;6.38;100;101551.4;;;;-74
2023/01/30 04:18:56;;;;;;;11.2;2.2;;;;;;;;;;;;;-74
2023/01/30 04:21:46;;;;;;;;;;;;;;;6.37;100;101552;;;;-73
2023/01/30 04:26:46;;;;;;;;;;;;;;;6.37;100;101554.8;;;;-73
2023/01/30 04:31:46;;;;;;;;;;;;;;;6.36;100;101563.9;;;;-73
2023/01/30 04:36:46;;;;;;;;;;;;;;;6.35;100;101567.4;;;;-74
2023/01/30 04:41:47;;;;;;;;;;;;;;;6.33;100;101570.5;;;;-73
2023/01/30 04:46:46;;;;;;;;;;;;;;;6.32;100;101591.2;;;;-73
2023/01/30 04:48:55;;;;;;;13.4;2.3;;;;;;;;;;;;;-74
2023/01/30 04:51:49;;;;;;;;;;;;;;;6.26;100;101588;;;;-75
2023/01/30 04:56:46;;;;;;;;;;;;;;;6.18;100;101578.9;;;;-74
2023/01/30 05:01:46;;;;;;;;;;;;;;;6.1;100;101581.1;;;;-73
2023/01/30 05:06:46;;;;;;;;;;;;;;;5.98;100;101577.7;;;;-74
2023/01/30 05:11:48;;;;;;;;;;;;;;;5.86;100;101580.1;;;;-74
2023/01/30 05:16:49;;;;;;;;;;;;;;;5.76;100;101591.4;;;;-74
2023/01/30 05:18:56;;;;;;;15.5;2.2;;;;;;;;;;;;;-74
2023/01/30 05:21:47;;;;;;;;;;;;;;;5.67;100;101604.3;;;;-74
2023/01/30 05:26:46;;;;;;;;;;;;;;;5.59;100;101603.7;;;;-73
2023/01/30 05:31:48;;;;;;;;;;;;;;;5.52;100;101602.5;;;;-74
2023/01/30 05:36:48;;;;;;;;;;;;;;;5.45;100;101599.9;;;;-74
2023/01/30 05:41:54;;;;;;;;;;;;;;;5.39;100;101603.6;;;;-74
2023/01/30 05:46:48;;;;;;;;;;;;;;;5.33;100;101606.5;;;;-74
2023/01/30 05:48:56;;;;;;;13.5;1.8;;;;;;;;;;;;;-75
2023/01/30 05:51:47;;;;;;;;;;;;;;;5.3;100;101604.1;;;;-73
2023/01/30 05:56:46;;;;;;;;;;;;;;;5.28;100;101615.8;;;;-74
2023/01/30 06:01:48;;;;;;;;;;;;;;;5.25;100;101634;;;;-74
2023/01/30 06:06:47;;;;;;;;;;;;;;;5.23;100;101623.7;;;;-75
2023/01/30 06:11:47;;;;;;;;;;;;;;;5.28;100;101638.5;;;;-74
2023/01/30 06:16:46;;;;;;;;;;;;;;;5.31;100;101644.1;;;;-74
2023/01/30 06:18:57;;;;;;;12.3;2;;;;;;;;;;;;;-74
2023/01/30 06:21:46;;;;;;;;;;;;;;;5.32;100;101638.9;;;;-73
2023/01/30 06:26:50;;;;;;;;;;;;;;;5.33;100;101620.8;;;;-74
2023/01/30 06:31:46;;;;;;;;;;;;;;;5.33;100;101613.2;;;;-74
2023/01/30 06:36:46;;;;;;;;;;;;;;;5.24;100;101621.7;;;;-75
2023/01/30 06:41:46;;;;;;;;;;;;;;;5.2;100;101630.2;;;;-74
2023/01/30 06:46:49;;;;;;;;;;;;;;;5.16;100;101634.8;;;;-74
2023/01/30 06:49:01;;;;;;;13;2;;;;;;;;;;;;;-75
2023/01/30 06:51:49;;;;;;;;;;;;;;;5.12;100;101610.9;;;;-73
2023/01/30 06:56:46;;;;;;;;;;;;;;;5.06;100;101621.5;;;;-74
2023/01/30 07:01:48;;;;;;;;;;;;;;;5.04;100;101626.8;;;;-74
2023/01/30 07:06:46;;;;;;;;;;;;;;;4.97;100;101657.6;;;;-74
2023/01/30 07:11:55;;;;;;;;;;;;;;;4.92;100;101658.4;;;;-74
2023/01/30 07:16:49;;;;;;;;;;;;;;;4.88;100;101649.9;;;;-75
2023/01/30 07:18:57;;;;;;;16.4;2.4;;;;;;;;;;;;;-75
2023/01/30 07:21:46;;;;;;;;;;;;;;;4.85;100;101668.8;;;;-75
2023/01/30 07:26:47;;;;;;;;;;;;;;;4.83;100;101667.3;;;;-75
2023/01/30 07:31:48;;;;;;;;;;;;;;;4.81;100;101663.7;;;;-74
2023/01/30 07:36:49;;;;;;;;;;;;;;;4.78;100;101660.4;;;;-76
2023/01/30 07:41:49;;;;;;;;;;;;;;;4.76;100;101663.8;;;;-74
2023/01/30 07:46:46;;;;;;;;;;;;;;;4.76;100;101670.5;;;;-74
2023/01/30 07:48:57;;;;;;;11.9;1.8;;;;;;;;;;;;;-73
2023/01/30 07:51:49;;;;;;;;;;;;;;;4.78;100;101676.6;;;;-74
2023/01/30 07:56:46;;;;;;;;;;;;;;;4.82;100;101676.2;;;;-74
2023/01/30 08:01:47;;;;;;;;;;;;;;;4.86;100;101685;;;;-75
2023/01/30 08:06:48;;;;;;;;;;;;;;;4.9;100;101666.5;;;;-75
2023/01/30 08:11:46;;;;;;;;;;;;;;;4.94;100;101675.9;;;;-74
2023/01/30 08:16:51;;;;;;;;;;;;;;;4.97;100;101709.5;;;;-74
2023/01/30 08:18:57;;;;;;;16.3;2;;;;;;;;;;;;;-76
2023/01/30 08:21:46;;;;;;;;;;;;;;;5.01;100;101714.8;;;;-73
2023/01/30 08:26:48;;;;;;;;;;;;;;;5.06;100;101720;;;;-74
2023/01/30 08:31:46;;;;;;;;;;;;;;;5.15;100;101720.2;;;;-74
2023/01/30 08:36:51;;;;;;;;;;;;;;;5.18;100;101709.5;;;;-74
2023/01/30 08:41:46;;;;;;;;;;;;;;;5.23;100;101721.5;;;;-74
2023/01/30 08:46:49;;;;;;;;;;;;;;;5.28;100;101731.3;;;;-73
2023/01/30 08:48:57;;;;;;;15.8;2.1;;;;;;;;;;;;;-75
2023/01/30 08:51:46;;;;;;;;;;;;;;;5.34;100;101741.4;;;;-74
2023/01/30 08:56:46;;;;;;;;;;;;;;;5.39;100;101743.5;;;;-75
2023/01/30 09:01:46;;;;;;;;;;;;;;;5.44;100;101753.9;;;;-75
2023/01/30 09:06:46;;;;;;;;;;;;;;;5.51;100;101765.1;;;;-73
2023/01/30 09:11:47;;;;;;;;;;;;;;;5.57;100;101787.5;;;;-73
2023/01/30 09:16:47;;;;;;;;;;;;;;;5.62;100;101787;;;;-74
2023/01/30 09:19:00;;;;;;;13.7;2.3;;;;;;;;;;;;;-75
2023/01/30 09:21:57;;;;;;;;;;;;;;;5.64;100;101773.5;;;;-73
2023/01/30 09:26:50;;;;;;;;;;;;;;;5.68;99.4873;101777.8;;;;-75
2023/01/30 09:31:46;;;;;;;;;;;;;;;5.72;99.27832;101796.3;;;;-75
2023/01/30 09:36:46;;;;;;;;;;;;;;;5.75;99.19727;101789;;;;-74
2023/01/30 09:41:57;;;;;;;;;;;;;;;5.76;99.09277;101785.8;;;;-74
2023/01/30 09:46:51;;;;;;;;;;;;;;;5.81;98.67871;101793.8;;;;-74
2023/01/30 09:49:05;;;;;;;12.6;2.1;;;;;;;;;;;;;-73
2023/01/30 09:51:53;;;;;;;;;;;;;;;5.84;98.73926;101812.4;;;;-74
2023/01/30 09:56:46;;;;;;;;;;;;;;;5.87;98.29004;101814.7;;;;-74
2023/01/30 10:01:55;;;;;;;;;;;;;;;5.92;97.98438;101824.2;;;;-75
2023/01/30 10:06:52;;;;;;;;;;;;;;;5.93;98.0957;101834.9;;;;-75
2023/01/30 10:11:53;;;;;;;;;;;;;;;5.96;98.21094;101838.7;;;;-73
2023/01/30 10:16:49;;;;;;;;;;;;;;;6.06;98.13574;101832.8;;;;-73
2023/01/30 10:19:09;;;;;;;15.9;2.4;;;;;;;;;;;;;-74
2023/01/30 10:21:50;;;;;;;;;;;;;;;6.24;97.80859;101839.7;;;;-73
2023/01/30 10:26:47;;;;;;;;;;;;;;;6.42;97.16016;101846.1;;;;-74
2023/01/30 10:31:50;;;;;;;;;;;;;;;6.57;96.74609;101829.7;;;;-74
2023/01/30 10:36:50;;;;;;;;;;;;;;;6.71;95.90527;101837.5;;;;-74
2023/01/30 10:41:52;;;;;;;;;;;;;;;6.79;95.44238;101850.4;;;;-74
2023/01/30 10:46:55;;;;;;;;;;;;;;;6.75;95.34766;101861;;;;-74
2023/01/30 10:49:01;;;;;;;17.5;2.7;;;;;;;;;;;;;-74
2023/01/30 10:51:53;;;;;;;;;;;;;;;6.73;95.17773;101866.9;;;;-73
2023/01/30 10:56:50;;;;;;;;;;;;;;;6.69;94.875;101857.5;;;;-75
2023/01/30 11:01:47;;;;;;;;;;;;;;;6.69;94.53613;101859.5;;;;-75
2023/01/30 11:06:46;;;;;;;;;;;;;;;6.77;95.08691;101853.4;;;;-74
2023/01/30 11:11:51;;;;;;;;;;;;;;;6.92;94.1377;101846.5;;;;-74
2023/01/30 11:16:51;;;;;;;;;;;;;;;6.99;93.37793;101856.6;;;;-75
2023/01/30 11:19:02;;;;;;;18.7;2.2;;;;;;;;;;;;;-75
2023/01/30 11:21:50;;;;;;;;;;;;;;;7.08;93.66895;101861.7;;;;-75
2023/01/30 11:26:51;;;;;;;;;;;;;;;7.17;92.44141;101876.8;;;;-75
2023/01/30 11:31:52;;;;;;;;;;;;;;;7.2;92.27441;101864.5;;;;-75
2023/01/30 11:36:49;;;;;;;;;;;;;;;7.18;91.79785;101888.7;;;;-75
2023/01/30 11:42:02;;;;;;;;;;;;;;;7.29;92.14063;101896.3;;;;-75
2023/01/30 11:46:46;;;;;;;;;;;;;;;7.35;92.23926;101894.7;;;;-73
2023/01/30 11:49:02;;;;;;;19.7;2.3;;;;;;;;;;;;;-74
2023/01/30 11:51:48;;;;;;;;;;;;;;;7.46;91.96777;101901.4;;;;-75
2023/01/30 11:56:50;;;;;;;;;;;;;;;7.48;91.43457;101902.7;;;;-67
2023/01/30 12:01:47;;;;;;;;;;;;;;;7.49;92.07324;101898.6;;;;-74
2023/01/30 12:06:50;;;;;;;;;;;;;;;7.49;91.71191;101908;;;;-72
2023/01/30 12:11:49;;;;;;;;;;;;;;;7.5;91.85645;101920.5;;;;-74
2023/01/30 12:16:55;;;;;;;;;;;;;;;7.49;91.17578;101922.9;;;;-74
2023/01/30 12:19:04;;;;;;;23.8;2.9;;;;;;;;;;;;;-73
2023/01/30 12:21:48;;;;;;;;;;;;;;;7.54;91.66699;101930.4;;;;-74
2023/01/30 12:26:50;;;;;;;;;;;;;;;7.57;91.13672;101930.2;;;;-74
2023/01/30 12:31:47;;;;;;;;;;;;;;;7.57;91.02637;101926.7;;;;-74
2023/01/30 12:36:51;;;;;;;;;;;;;;;7.55;90.94824;101925.1;;;;-73
2023/01/30 12:41:53;;;;;;;;;;;;;;;7.57;91.14941;101928.8;;;;-74
2023/01/30 12:46:53;;;;;;;;;;;;;;;7.57;90.28418;101938.1;;;;-75
2023/01/30 12:49:07;;;;;;;20.5;2.6;;;;;;;;;;;;;-74
2023/01/30 12:51:58;;;;;;;;;;;;;;;7.48;90.81055;101934.9;;;;-76
2023/01/30 12:56:57;;;;;;;;;;;;;;;7.45;91.50586;101945.8;;;;-75
2023/01/30 13:01:50;;;;;;;;;;;;;;;7.47;91.2793;101947.3;;;;-75
2023/01/30 13:06:59;;;;;;;;;;;;;;;7.55;91.69238;101951.1;;;;-73
2023/01/30 13:11:51;;;;;;;;;;;;;;;7.66;91.16602;101952.3;;;;-73
2023/01/30 13:16:52;;;;;;;;;;;;;;;7.77;90.5752;101966.9;;;;-74
2023/01/30 13:19:08;;;;;;;15.9;2.1;;;;;;;;;;;;;-74
2023/01/30 13:21:51;;;;;;;;;;;;;;;7.87;90.23438;101989.1;;;;-74
2023/01/30 13:26:51;;;;;;;;;;;;;;;7.93;88.87695;101982.5;;;;-76
2023/01/30 13:31:51;;;;;;;;;;;;;;;7.83;88.97559;101984.5;;;;-72
2023/01/30 13:36:50;;;;;;;;;;;;;;;7.79;89.63867;101995.8;;;;-71
2023/01/30 13:41:49;;;;;;;;;;;;;;;7.84;89.61523;101995;;;;-73
2023/01/30 13:46:47;;;;;;;;;;;;;;;7.84;89.76855;101991.4;;;;-74
2023/01/30 13:49:11;;;;;;;13.9;2.3;;;;;;;;;;;;;-74
2023/01/30 13:51:50;;;;;;;;;;;;;;;7.92;90.65137;101999.5;;;;-73
2023/01/30 13:56:49;;;;;;;;;;;;;;;7.88;89.38086;102022.5;;;;-72
2023/01/30 14:01:57;;;;;;;;;;;;;;;7.81;90.02637;102024.9;;;;-73
2023/01/30 14:06:46;;;;;;;;;;;;;;;7.79;89.33105;102033.4;;;;-73
2023/01/30 14:11:51;;;;;;;;;;;;;;;7.78;89.83398;102038.8;;;;-73
2023/01/30 14:16:51;;;;;;;;;;;;;;;7.77;89.11914;102049;;;;-74
2023/01/30 14:19:14;;;;;;;16.8;2.2;;;;;;;;;;;;;-74
2023/01/30 14:21:56;;;;;;;;;;;;;;;7.7;89.87012;102056.9;;;;-73
2023/01/30 14:27:07;;;;;;;;;;;;;;;7.62;89.86426;102069.7;;;;-73
2023/01/30 14:31:55;;;;;;;;;;;;;;;7.6;89.10645;102081.3;;;;-73
2023/01/30 14:36:49;;;;;;;;;;;;;;;7.69;89.25586;102098.3;;;;-72
2023/01/30 14:41:47;;;;;;;;;;;;;;;7.69;89.46484;102098.5;;;;-72
2023/01/30 14:46:48;;;;;;;;;;;;;;;7.68;90.09668;102111.4;;;;-73
2023/01/30 14:49:07;;;;;;;17;2.2;;;;;;;;;;;;;-73
2023/01/30 14:51:49;;;;;;;;;;;;;;;7.74;89.3418;102114.3;;;;-72
2023/01/30 14:56:50;;;;;;;;;;;;;;;7.67;89.07715;102130.2;;;;-73
2023/01/30 15:02:04;;;;;;;;;;;;;;;7.61;89.9082;102141.4;;;;-73
2023/01/30 15:06:49;;;;;;;;;;;;;;;7.54;90.18848;102157.3;;;;-71
2023/01/30 15:11:50;;;;;;;;;;;;;;;7.46;89.91016;102160.3;;;;-73
2023/01/30 15:16:54;;;;;;;;;;;;;;;7.44;90.10254;102169.8;;;;-72
2023/01/30 15:19:15;;;;;;;15.4;2.3;;;;;;;;;;;;;-73
2023/01/30 15:21:55;;;;;;;;;;;;;;;7.39;90.51953;102175;;;;-72
2023/01/30 15:26:56;;;;;;;;;;;;;;;7.4;90.25879;102197.4;;;;-74
2023/01/30 15:31:55;;;;;;;;;;;;;;;7.3;89.42773;102211.8;;;;-73
2023/01/30 15:36:53;;;;;;;;;;;;;;;7.21;91.30273;102219.3;;;;-74
2023/01/30 15:41:46;;;;;;;;;;;;;;;7.13;91.86719;102233.1;;;;-73
2023/01/30 15:46:51;;;;;;;;;;;;;;;7.01;92.8457;102233.1;;;;-72
2023/01/30 15:49:19;;;;;;;14.3;2;;;;;;;;;;;;;-73
2023/01/30 15:51:46;;;;;;;;;;;;;;;6.92;92.85938;102241.1;;;;-73
2023/01/30 15:56:51;;;;;;;;;;;;;;;6.81;93;102258.9;;;;-73
2023/01/30 16:01:47;;;;;;;;;;;;;;;6.73;94.65527;102255.4;;;;-73
2023/01/30 16:06:46;;;;;;;;;;;;;;;6.65;94.52637;102263.5;;;;-72
2023/01/30 16:11:46;;;;;;;;;;;;;;;6.56;94.72656;102271.1;;;;-73
2023/01/30 16:16:50;;;;;;;;;;;;;;;6.47;94.88184;102291.6;;;;-72
2023/01/30 16:19:12;;;;;;;11.4;1.8;;;;;;;;;;;;;-71
2023/01/30 16:21:48;;;;;;;;;;;;;;;6.38;95.30762;102301.2;;;;-72
2023/01/30 16:26:49;;;;;;;;;;;;;;;6.29;94.12207;102305.3;;;;-73
2023/01/30 16:31:48;;;;;;;;;;;;;;;6.21;94.69336;102319.5;;;;-73
2023/01/30 16:36:50;;;;;;;;;;;;;;;6.14;93.83789;102331.2;;;;-73
2023/01/30 16:41:47;;;;;;;;;;;;;;;6.1;94.85449;102335.7;;;;-73
2023/01/30 16:46:53;;;;;;;;;;;;;;;6;95.05078;102348.2;;;;-73
2023/01/30 16:49:15;;;;;;;10.5;1.6;;;;;;;;;;;;;-74
2023/01/30 16:51:47;;;;;;;;;;;;;;;5.95;94.66797;102362.8;;;;-74
2023/01/30 16:56:48;;;;;;;;;;;;;;;5.88;95.09082;102372.1;;;;-74
2023/01/30 17:01:46;;;;;;;;;;;;;;;5.77;94.83789;102375.9;;;;-73
2023/01/30 17:06:46;;;;;;;;;;;;;;;5.71;95.30273;102387.3;;;;-72
2023/01/30 17:11:46;;;;;;;;;;;;;;;5.68;95.33887;102397.9;;;;-73
2023/01/30 17:16:46;;;;;;;;;;;;;;;5.64;95.36523;102404.4;;;;-73
2023/01/30 17:19:10;;;;;;;15.9;2.1;;;;;;;;;;;;;-73
2023/01/30 17:21:53;;;;;;;;;;;;;;;5.6;95.63867;102405.4;;;;-73
2023/01/30 17:26:46;;;;;;;;;;;;;;;5.52;96.12109;102406.3;;;;-74
2023/01/30 17:31:50;;;;;;;;;;;;;;;5.43;96.28516;102405.1;;;;-70
2023/01/30 17:36:48;;;;;;;;;;;;;;;5.36;96.43457;102421;;;;-73
2023/01/30 17:41:46;;;;;;;;;;;;;;;5.24;96.62598;102430.4;;;;-73
2023/01/30 17:46:52;;;;;;;;;;;;;;;5.15;96.83398;102436.6;;;;-74
2023/01/30 17:49:15;;;;;;;14.3;1.7;;;;;;;;;;;;;-74
2023/01/30 17:51:47;;;;;;;;;;;;;;;5.12;96.64063;102445.6;;;;-74
2023/01/30 17:56:51;;;;;;;;;;;;;;;5.07;96.67383;102439.4;;;;-73
2023/01/30 18:01:47;;;;;;;;;;;;;;;5.04;96.8291;102449.4;;;;-73
2023/01/30 18:06:48;;;;;;;;;;;;;;;5.05;96.35254;102439.3;;;;-71
2023/01/30 18:11:46;;;;;;;;;;;;;;;5;96.28809;102458.7;;;;-73
2023/01/30 18:16:46;;;;;;;;;;;;;;;4.91;96.79004;102469.2;;;;-74
2023/01/30 18:19:12;;;;;;;7.1;1.2;;;;;;;;;;;;;-73
2023/01/30 18:21:47;;;;;;;;;;;;;;;4.87;97.42285;102470.6;;;;-73
2023/01/30 18:26:46;;;;;;;;;;;;;;;4.79;97.7627;102465.9;;;;-74
2023/01/30 18:31:46;;;;;;;;;;;;;;;4.68;97.72656;102477.2;;;;-74
2023/01/30 18:36:46;;;;;;;;;;;;;;;4.63;98.00781;102486.7;;;;-73
2023/01/30 18:41:46;;;;;;;;;;;;;;;4.59;98.01074;102495.5;;;;-73
2023/01/30 18:46:50;;;;;;;;;;;;;;;4.5;98.21777;102494.2;;;;-75
2023/01/30 18:49:14;;;;;;;5.8;0.8;;;;;;;;;;;;;-73
2023/01/30 18:51:46;;;;;;;;;;;;;;;4.48;98.21387;102501.8;;;;-73
2023/01/30 18:56:46;;;;;;;;;;;;;;;4.41;98.75879;102495.3;;;;-74
2023/01/30 19:01:46;;;;;;;;;;;;;;;4.37;98.76367;102501.7;;;;-73
2023/01/30 19:06:49;;;;;;;;;;;;;;;4.42;98.83008;102519.8;;;;-74
2023/01/30 19:16:46;;;;;;;;;;;;;;;4.34;98.89844;102515.1;;;;-73
2023/01/30 19:19:12;;;;;;;7.6;1.4;;;;;;;;;;;;;-73
2023/01/30 19:21:50;;;;;;;;;;;;;;;4.32;98.79492;102525.3;;;;-73
2023/01/30 19:26:49;;;;;;;;;;;;;;;4.26;98.9209;102528.5;;;;-73
2023/01/30 19:31:47;;;;;;;;;;;;;;;4.25;98.91016;102543.4;;;;-74
2023/01/30 19:36:47;;;;;;;;;;;;;;;4.19;99.16699;102551.2;;;;-73
2023/01/30 19:41:47;;;;;;;;;;;;;;;4.14;99.29492;102541.5;;;;-73
2023/01/30 19:46:46;;;;;;;;;;;;;;;4.07;99.35645;102550;;;;-73
2023/01/30 19:49:15;;;;;;;9.2;1.4;;;;;;;;;;;;;-74
2023/01/30 19:51:49;;;;;;;;;;;;;;;4.04;99.21973;102559.7;;;;-74
2023/01/30 19:56:48;;;;;;;;;;;;;;;4.02;99.42188;102548.3;;;;-73
2023/01/30 20:01:49;;;;;;;;;;;;;;;3.99;99.38086;102542.4;;;;-73
2023/01/30 20:06:48;;;;;;;;;;;;;;;3.97;99.30078;102549.3;;;;-73
2023/01/30 20:11:51;;;;;;;;;;;;;;;3.91;99.45898;102562.3;;;;-74
2023/01/30 20:16:46;;;;;;;;;;;;;;;3.82;99.50293;102552.7;;;;-73
2023/01/30 20:19:15;;;;;;;8.1;1.1;;;;;;;;;;;;;-74
2023/01/30 20:21:47;;;;;;;;;;;;;;;3.77;99.60059;102556.1;;;;-74
2023/01/30 20:26:47;;;;;;;;;;;;;;;3.71;99.79199;102565.8;;;;-73
2023/01/30 20:31:46;;;;;;;;;;;;;;;3.64;99.8623;102568.6;;;;-73
2023/01/30 20:36:52;;;;;;;;;;;;;;;3.6;99.5957;102556.7;;;;-73
2023/01/30 20:41:47;;;;;;;;;;;;;;;3.5;99.9707;102559.5;;;;-73
2023/01/30 20:46:48;;;;;;;;;;;;;;;3.43;99.65332;102549.8;;;;-73
2023/01/30 20:49:14;;;;;;;7.1;0.8;;;;;;;;;;;;;-75
2023/01/30 20:51:47;;;;;;;;;;;;;;;3.35;100;102548.4;;;;-73
2023/01/30 20:56:47;;;;;;;;;;;;;;;3.29;100;102546.7;;;;-73
2023/01/30 21:01:46;;;;;;;;;;;;;;;3.21;100;102557.8;;;;-74
2023/01/30 21:06:46;;;;;;;;;;;;;;;3.15;100;102552;;;;-73
2023/01/30 21:11:46;;;;;;;;;;;;;;;3.13;100;102538.7;;;;-73
2023/01/30 21:16:46;;;;;;;;;;;;;;;3.04;100;102536.9;;;;-74
2023/01/30 21:19:14;;;;;;;7.1;1;;;;;;;;;;;;;-74
2023/01/30 21:21:49;;;;;;;;;;;;;;;2.95;100;102541.2;;;;-73
2023/01/30 21:26:48;;;;;;;;;;;;;;;2.96;100;102544.5;;;;-74
2023/01/30 21:31:47;;;;;;;;;;;;;;;2.98;100;102552.1;;;;-73
2023/01/30 21:43:12;;;;;;;;;;;;;;;3.03;100;102561.6;;;;-73
2023/01/30 21:46:47;;;;;;;;;;;;;;;3.02;100;102578.7;;;;-72
2023/01/30 21:49:13;;;;;;;5;0.9;;;;;;;;;;;;;-73
2023/01/30 21:51:48;;;;;;;;;;;;;;;3.01;100;102582.9;;;;-73
2023/01/30 21:56:47;;;;;;;;;;;;;;;2.99;100;102576.5;;;;-73
2023/01/30 22:01:47;;;;;;;;;;;;;;;3.01;100;102576.4;;;;-73
2023/01/30 22:06:47;;;;;;;;;;;;;;;3.05;100;102566;;;;-74
2023/01/30 22:11:47;;;;;;;;;;;;;;;3.07;100;102566;;;;-74
2023/01/30 22:16:46;;;;;;;;;;;;;;;3.08;100;102561.3;;;;-75
2023/01/30 22:19:14;;;;;;;6.2;0.8;;;;;;;;;;;;;-73
2023/01/30 22:21:49;;;;;;;;;;;;;;;3.07;100;102554.5;;;;-73
2023/01/30 22:26:51;;;;;;;;;;;;;;;3.05;100;102541.1;;;;-74
2023/01/30 22:31:46;;;;;;;;;;;;;;;3.01;100;102542.8;;;;-75
2023/01/30 22:36:50;;;;;;;;;;;;;;;2.96;100;102540.7;;;;-73
2023/01/30 22:41:46;;;;;;;;;;;;;;;2.89;100;102543.6;;;;-72
2023/01/30 22:46:46;;;;;;;;;;;;;;;2.86;100;102544.8;;;;-73
2023/01/30 22:49:13;;;;;;;4.3;1;;;;;;;;;;;;;-74
2023/01/30 22:51:46;;;;;;;;;;;;;;;2.79;100;102542.1;;;;-73
2023/01/30 22:56:47;;;;;;;;;;;;;;;2.74;100;102533.1;;;;-72
2023/01/30 23:01:49;;;;;;;;;;;;;;;2.71;100;102525.7;;;;-73
2023/01/30 23:06:46;;;;;;;;;;;;;;;2.68;100;102522.8;;;;-73
2023/01/30 23:13:05;;;;;;;;;;;;;;;2.63;100;102515.1;;;;-73
2023/01/30 23:16:47;;;;;;;;;;;;;;;2.58;100;102519.1;;;;-73
2023/01/30 23:19:14;;;;;;;4;0.6;;;;;;;;;;;;;-73
2023/01/30 23:21:47;;;;;;;;;;;;;;;2.56;100;102511.3;;;;-75
2023/01/30 23:26:53;;;;;;;;;;;;;;;2.51;100;102514.1;;;;-73
2023/01/30 23:31:47;;;;;;;;;;;;;;;2.47;100;102510.7;;;;-73
2023/01/30 23:36:46;;;;;;;;;;;;;;;2.43;100;102515.1;;;;-73
2023/01/30 23:41:46;;;;;;;;;;;;;;;2.35;100;102510.5;;;;-73
2023/01/30 23:46:46;;;;;;;;;;;;;;;2.36;100;102513.3;;;;-71
2023/01/30 23:49:14;;;;;;;3;0.7;;;;;;;;;;;;;-74
2023/01/30 23:51:49;;;;;;;;;;;;;;;2.31;100;102511.1;;;;-73
2023/01/30 23:56:50;;;;;;;;;;;;;;;2.33;100;102505.5;;;;-73
